sensor_id;sensor_type;location;lat;lon;timestamp;P1;durP1;ratioP1;P2;durP2;ratioP2
20567;SDS011;10442;49.932;11.592;2022-09-23T00:01:19;5.07;;;2.47;;
20567;SDS011;10442;49.932;11.592;2022-09-23T00:03:47;2.70;;;2.50;;
20567;SDS011;10442;49.932;11.592;2022-09-23T00:06:16;3.63;;;2.27;;
20567;SDS011;10442;49.932;11.592;2022-09-23T00:08:45;3.53;;;2.10;;
20567;SDS011;10442;49.932;11.592;2022-09-23T00:11:16;3.40;;;2.70;;
20567;SDS011;10442;49.932;11.592;2022-09-23T00:13:50;2.40;;;1.90;;
20567;SDS011;10442;49.932;11.592;2022-09-23T00:16:24;3.27;;;2.43;;
20567;SDS011;10442;49.932;11.592;2022-09-23T00:18:56;2.93;;;2.73;;
20567;SDS011;10442;49.932;11.592;2022-09-23T00:21:24;2.47;;;2.27;;
20567;SDS011;10442;49.932;11.592;2022-09-23T00:23:51;2.77;;;2.57;;
20567;SDS011;10442;49.932;11.592;2022-09-23T00:26:20;3.07;;;2.77;;
20567;SDS011;10442;49.932;11.592;2022-09-23T00:28:49;4.93;;;2.50;;
20567;SDS011;10442;49.932;11.592;2022-09-23T00:31:18;2.47;;;2.30;;
20567;SDS011;10442;49.932;11.592;2022-09-23T00:33:51;2.73;;;1.90;;
20567;SDS011;10442;49.932;11.592;2022-09-23T00:36:20;2.63;;;2.43;;
20567;SDS011;10442;49.932;11.592;2022-09-23T00:38:47;3.70;;;2.33;;
20567;SDS011;10442;49.932;11.592;2022-09-23T00:41:15;5.40;;;2.53;;
20567;SDS011;10442;49.932;11.592;2022-09-23T00:43:44;2.43;;;2.23;;
20567;SDS011;10442;49.932;11.592;2022-09-23T00:46:21;2.50;;;2.30;;
20567;SDS011;10442;49.932;11.592;2022-09-23T00:49:04;2.13;;;1.97;;
20567;SDS011;10442;49.932;11.592;2022-09-23T00:51:40;2.43;;;2.23;;
20567;SDS011;10442;49.932;11.592;2022-09-23T00:54:12;3.23;;;2.83;;
20567;SDS011;10442;49.932;11.592;2022-09-23T00:56:40;2.47;;;2.27;;
20567;SDS011;10442;49.932;11.592;2022-09-23T00:59:07;2.23;;;2.03;;
20567;SDS011;10442;49.932;11.592;2022-09-23T01:01:36;2.23;;;2.00;;
20567;SDS011;10442;49.932;11.592;2022-09-23T01:04:05;1.97;;;1.87;;
20567;SDS011;10442;49.932;11.592;2022-09-23T01:06:34;2.13;;;1.93;;
20567;SDS011;10442;49.932;11.592;2022-09-23T01:09:01;2.90;;;2.57;;
20567;SDS011;10442;49.932;11.592;2022-09-23T01:17:15;1.90;;;1.80;;
20567;SDS011;10442;49.932;11.592;2022-09-23T01:31:45;3.00;;;1.80;;
20567;SDS011;10442;49.932;11.592;2022-09-23T01:40:13;2.17;;;2.00;;
20567;SDS011;10442;49.932;11.592;2022-09-23T01:43:06;3.10;;;2.20;;
20567;SDS011;10442;49.932;11.592;2022-09-23T01:46:16;2.97;;;2.70;;
20567;SDS011;10442;49.932;11.592;2022-09-23T01:48:51;2.77;;;2.57;;
20567;SDS011;10442;49.932;11.592;2022-09-23T01:51:26;2.40;;;2.23;;
20567;SDS011;10442;49.932;11.592;2022-09-23T01:54:19;3.00;;;1.83;;
20567;SDS011;10442;49.932;11.592;2022-09-23T01:56:57;2.57;;;2.37;;
20567;SDS011;10442;49.932;11.592;2022-09-23T01:59:46;2.63;;;2.43;;
20567;SDS011;10442;49.932;11.592;2022-09-23T02:02:23;2.70;;;2.50;;
20567;SDS011;10442;49.932;11.592;2022-09-23T02:04:57;2.93;;;2.63;;
20567;SDS011;10442;49.932;11.592;2022-09-23T02:07:46;2.20;;;2.10;;
20567;SDS011;10442;49.932;11.592;2022-09-23T02:12:58;2.80;;;2.20;;
20567;SDS011;10442;49.932;11.592;2022-09-23T02:15:32;1.80;;;1.70;;
20567;SDS011;10442;49.932;11.592;2022-09-23T02:18:07;2.83;;;1.70;;
20567;SDS011;10442;49.932;11.592;2022-09-23T02:20:41;2.40;;;2.20;;
20567;SDS011;10442;49.932;11.592;2022-09-23T02:23:10;3.83;;;2.77;;
20567;SDS011;10442;49.932;11.592;2022-09-23T02:25:43;2.63;;;2.43;;
20567;SDS011;10442;49.932;11.592;2022-09-23T02:31:47;2.40;;;2.20;;
20567;SDS011;10442;49.932;11.592;2022-09-23T02:37:24;2.00;;;1.90;;
20567;SDS011;10442;49.932;11.592;2022-09-23T02:42:49;2.43;;;2.30;;
20567;SDS011;10442;49.932;11.592;2022-09-23T02:45:35;2.23;;;2.03;;
20567;SDS011;10442;49.932;11.592;2022-09-23T02:48:08;1.90;;;1.80;;
20567;SDS011;10442;49.932;11.592;2022-09-23T02:50:40;2.03;;;1.83;;
20567;SDS011;10442;49.932;11.592;2022-09-23T02:53:08;1.60;;;1.50;;
20567;SDS011;10442;49.932;11.592;2022-09-23T02:55:36;2.80;;;1.90;;
20567;SDS011;10442;49.932;11.592;2022-09-23T02:58:05;2.60;;;2.40;;
20567;SDS011;10442;49.932;11.592;2022-09-23T03:03:43;2.53;;;2.10;;
20567;SDS011;10442;49.932;11.592;2022-09-23T03:08:57;1.63;;;1.53;;
20567;SDS011;10442;49.932;11.592;2022-09-23T03:11:32;2.13;;;2.00;;
20567;SDS011;10442;49.932;11.592;2022-09-23T03:14:24;2.10;;;2.00;;
20567;SDS011;10442;49.932;11.592;2022-09-23T03:17:26;3.10;;;2.10;;
20567;SDS011;10442;49.932;11.592;2022-09-23T03:20:08;2.77;;;1.97;;
20567;SDS011;10442;49.932;11.592;2022-09-23T03:22:44;2.70;;;1.60;;
20567;SDS011;10442;49.932;11.592;2022-09-23T03:25:16;2.30;;;2.10;;
20567;SDS011;10442;49.932;11.592;2022-09-23T03:27:47;1.77;;;1.67;;
20567;SDS011;10442;49.932;11.592;2022-09-23T03:30:14;1.83;;;1.73;;
20567;SDS011;10442;49.932;11.592;2022-09-23T03:32:44;2.13;;;2.03;;
20567;SDS011;10442;49.932;11.592;2022-09-23T03:35:12;1.70;;;1.60;;
20567;SDS011;10442;49.932;11.592;2022-09-23T03:37:43;1.97;;;1.87;;
20567;SDS011;10442;49.932;11.592;2022-09-23T03:40:23;2.80;;;1.80;;
20567;SDS011;10442;49.932;11.592;2022-09-23T03:42:55;1.60;;;1.50;;
20567;SDS011;10442;49.932;11.592;2022-09-23T03:45:28;3.00;;;1.80;;
20567;SDS011;10442;49.932;11.592;2022-09-23T03:47:58;1.87;;;1.77;;
20567;SDS011;10442;49.932;11.592;2022-09-23T03:50:26;2.23;;;2.00;;
20567;SDS011;10442;49.932;11.592;2022-09-23T03:52:54;2.00;;;1.80;;
20567;SDS011;10442;49.932;11.592;2022-09-23T03:55:22;1.73;;;1.63;;
20567;SDS011;10442;49.932;11.592;2022-09-23T03:57:49;3.50;;;2.00;;
20567;SDS011;10442;49.932;11.592;2022-09-23T04:00:18;1.87;;;1.77;;
20567;SDS011;10442;49.932;11.592;2022-09-23T04:02:46;3.20;;;2.03;;
20567;SDS011;10442;49.932;11.592;2022-09-23T04:05:14;1.53;;;1.43;;
20567;SDS011;10442;49.932;11.592;2022-09-23T04:07:41;2.60;;;2.40;;
20567;SDS011;10442;49.932;11.592;2022-09-23T04:10:09;2.13;;;2.00;;
20567;SDS011;10442;49.932;11.592;2022-09-23T04:12:37;2.03;;;1.93;;
20567;SDS011;10442;49.932;11.592;2022-09-23T04:15:04;1.67;;;1.57;;
20567;SDS011;10442;49.932;11.592;2022-09-23T04:17:33;1.87;;;1.67;;
20567;SDS011;10442;49.932;11.592;2022-09-23T04:20:00;1.77;;;1.67;;
20567;SDS011;10442;49.932;11.592;2022-09-23T04:22:28;1.70;;;1.60;;
20567;SDS011;10442;49.932;11.592;2022-09-23T04:24:55;2.33;;;2.23;;
20567;SDS011;10442;49.932;11.592;2022-09-23T04:27:23;2.40;;;2.27;;
20567;SDS011;10442;49.932;11.592;2022-09-23T04:29:51;2.77;;;2.23;;
20567;SDS011;10442;49.932;11.592;2022-09-23T04:32:18;2.17;;;2.07;;
20567;SDS011;10442;49.932;11.592;2022-09-23T04:34:46;4.30;;;2.30;;
20567;SDS011;10442;49.932;11.592;2022-09-23T04:37:13;1.90;;;1.80;;
20567;SDS011;10442;49.932;11.592;2022-09-23T04:39:41;2.33;;;2.13;;
20567;SDS011;10442;49.932;11.592;2022-09-23T04:42:09;2.37;;;2.17;;
20567;SDS011;10442;49.932;11.592;2022-09-23T04:44:37;2.30;;;2.20;;
20567;SDS011;10442;49.932;11.592;2022-09-23T04:47:05;3.37;;;2.87;;
20567;SDS011;10442;49.932;11.592;2022-09-23T04:49:33;3.63;;;1.97;;
20567;SDS011;10442;49.932;11.592;2022-09-23T04:52:01;1.97;;;1.87;;
20567;SDS011;10442;49.932;11.592;2022-09-23T04:54:28;2.37;;;2.20;;
20567;SDS011;10442;49.932;11.592;2022-09-23T04:56:56;3.00;;;2.63;;
20567;SDS011;10442;49.932;11.592;2022-09-23T04:59:23;2.57;;;2.37;;
20567;SDS011;10442;49.932;11.592;2022-09-23T05:01:51;2.30;;;2.10;;
20567;SDS011;10442;49.932;11.592;2022-09-23T05:04:20;3.30;;;2.73;;
20567;SDS011;10442;49.932;11.592;2022-09-23T05:06:48;3.53;;;2.03;;
20567;SDS011;10442;49.932;11.592;2022-09-23T05:09:16;2.20;;;2.00;;
20567;SDS011;10442;49.932;11.592;2022-09-23T05:11:44;2.40;;;2.20;;
20567;SDS011;10442;49.932;11.592;2022-09-23T05:14:12;2.70;;;2.23;;
20567;SDS011;10442;49.932;11.592;2022-09-23T05:16:39;2.77;;;2.50;;
20567;SDS011;10442;49.932;11.592;2022-09-23T05:19:07;2.50;;;2.30;;
20567;SDS011;10442;49.932;11.592;2022-09-23T05:21:35;2.23;;;2.13;;
20567;SDS011;10442;49.932;11.592;2022-09-23T05:24:03;3.90;;;2.77;;
20567;SDS011;10442;49.932;11.592;2022-09-23T05:26:31;2.23;;;2.07;;
20567;SDS011;10442;49.932;11.592;2022-09-23T05:28:59;3.03;;;2.43;;
20567;SDS011;10442;49.932;11.592;2022-09-23T05:31:27;2.67;;;2.10;;
20567;SDS011;10442;49.932;11.592;2022-09-23T05:33:57;2.97;;;2.30;;
20567;SDS011;10442;49.932;11.592;2022-09-23T05:36:27;8.57;;;3.73;;
20567;SDS011;10442;49.932;11.592;2022-09-23T05:39:03;3.20;;;2.80;;
20567;SDS011;10442;49.932;11.592;2022-09-23T05:41:31;4.73;;;2.73;;
20567;SDS011;10442;49.932;11.592;2022-09-23T05:43:59;2.93;;;2.73;;
20567;SDS011;10442;49.932;11.592;2022-09-23T05:46:28;3.10;;;2.45;;
20567;SDS011;10442;49.932;11.592;2022-09-23T05:48:56;2.88;;;2.55;;
20567;SDS011;10442;49.932;11.592;2022-09-23T05:51:29;4.57;;;3.13;;
20567;SDS011;10442;49.932;11.592;2022-09-23T05:53:58;6.75;;;3.25;;
20567;SDS011;10442;49.932;11.592;2022-09-23T05:56:29;3.33;;;2.42;;
20567;SDS011;10442;49.932;11.592;2022-09-23T05:58:58;7.13;;;3.13;;
20567;SDS011;10442;49.932;11.592;2022-09-23T06:01:28;9.45;;;3.28;;
20567;SDS011;10442;49.932;11.592;2022-09-23T06:04:02;15.55;;;2.75;;
20567;SDS011;10442;49.932;11.592;2022-09-23T06:06:36;9.68;;;2.88;;
20567;SDS011;10442;49.932;11.592;2022-09-23T06:09:05;15.30;;;3.15;;
20567;SDS011;10442;49.932;11.592;2022-09-23T06:11:34;11.40;;;2.95;;
20567;SDS011;10442;49.932;11.592;2022-09-23T06:14:02;4.82;;;3.33;;
20567;SDS011;10442;49.932;11.592;2022-09-23T06:16:33;6.90;;;4.30;;
20567;SDS011;10442;49.932;11.592;2022-09-23T06:19:01;8.98;;;4.05;;
20567;SDS011;10442;49.932;11.592;2022-09-23T06:21:33;23.30;;;4.25;;
20567;SDS011;10442;49.932;11.592;2022-09-23T06:24:03;9.27;;;3.40;;
20567;SDS011;10442;49.932;11.592;2022-09-23T06:26:31;3.53;;;3.22;;
20567;SDS011;10442;49.932;11.592;2022-09-23T06:29:12;3.20;;;2.90;;
20567;SDS011;10442;49.932;11.592;2022-09-23T06:31:40;24.70;;;6.43;;
20567;SDS011;10442;49.932;11.592;2022-09-23T06:34:09;6.95;;;4.53;;
20567;SDS011;10442;49.932;11.592;2022-09-23T06:36:41;4.38;;;3.97;;
20567;SDS011;10442;49.932;11.592;2022-09-23T06:39:13;5.45;;;2.83;;
20567;SDS011;10442;49.932;11.592;2022-09-23T06:41:41;4.13;;;2.67;;
20567;SDS011;10442;49.932;11.592;2022-09-23T06:44:13;3.17;;;2.88;;
20567;SDS011;10442;49.932;11.592;2022-09-23T06:46:40;3.58;;;3.38;;
20567;SDS011;10442;49.932;11.592;2022-09-23T06:49:09;5.50;;;3.35;;
20567;SDS011;10442;49.932;11.592;2022-09-23T06:51:39;3.60;;;3.05;;
20567;SDS011;10442;49.932;11.592;2022-09-23T06:54:07;3.13;;;2.90;;
20567;SDS011;10442;49.932;11.592;2022-09-23T06:56:35;3.72;;;3.42;;
20567;SDS011;10442;49.932;11.592;2022-09-23T06:59:07;3.80;;;3.50;;
20567;SDS011;10442;49.932;11.592;2022-09-23T07:01:36;3.65;;;3.35;;
20567;SDS011;10442;49.932;11.592;2022-09-23T07:04:04;4.38;;;3.92;;
20567;SDS011;10442;49.932;11.592;2022-09-23T07:06:33;7.35;;;3.90;;
20567;SDS011;10442;49.932;11.592;2022-09-23T07:09:01;2.97;;;2.75;;
20567;SDS011;10442;49.932;11.592;2022-09-23T07:11:29;3.30;;;3.00;;
20567;SDS011;10442;49.932;11.592;2022-09-23T07:13:57;19.85;;;12.52;;
20567;SDS011;10442;49.932;11.592;2022-09-23T07:16:24;13.88;;;11.35;;
20567;SDS011;10442;49.932;11.592;2022-09-23T07:18:52;4.65;;;4.25;;
20567;SDS011;10442;49.932;11.592;2022-09-23T07:21:21;2.90;;;2.70;;
20567;SDS011;10442;49.932;11.592;2022-09-23T07:23:48;2.95;;;2.75;;
20567;SDS011;10442;49.932;11.592;2022-09-23T07:26:18;2.55;;;2.35;;
20567;SDS011;10442;49.932;11.592;2022-09-23T07:28:46;4.47;;;3.63;;
20567;SDS011;10442;49.932;11.592;2022-09-23T07:31:14;3.05;;;2.75;;
20567;SDS011;10442;49.932;11.592;2022-09-23T07:33:58;4.95;;;4.45;;
20567;SDS011;10442;49.932;11.592;2022-09-23T07:36:29;2.50;;;2.30;;
20567;SDS011;10442;49.932;11.592;2022-09-23T07:38:59;7.05;;;6.15;;
20567;SDS011;10442;49.932;11.592;2022-09-23T07:41:29;6.70;;;2.90;;
20567;SDS011;10442;49.932;11.592;2022-09-23T07:43:58;2.78;;;2.53;;
20567;SDS011;10442;49.932;11.592;2022-09-23T07:46:27;5.07;;;2.55;;
20567;SDS011;10442;49.932;11.592;2022-09-23T07:48:56;2.17;;;1.98;;
20567;SDS011;10442;49.932;11.592;2022-09-23T07:51:25;2.33;;;2.13;;
20567;SDS011;10442;49.932;11.592;2022-09-23T07:54:01;2.20;;;2.10;;
20567;SDS011;10442;49.932;11.592;2022-09-23T07:56:33;2.05;;;1.90;;
20567;SDS011;10442;49.932;11.592;2022-09-23T07:59:02;2.13;;;1.98;;
20567;SDS011;10442;49.932;11.592;2022-09-23T08:01:34;2.03;;;1.83;;
20567;SDS011;10442;49.932;11.592;2022-09-23T08:04:05;3.15;;;1.90;;
20567;SDS011;10442;49.932;11.592;2022-09-23T08:06:40;1.90;;;1.80;;
20567;SDS011;10442;49.932;11.592;2022-09-23T08:09:09;2.10;;;2.00;;
20567;SDS011;10442;49.932;11.592;2022-09-23T08:11:38;2.47;;;1.80;;
20567;SDS011;10442;49.932;11.592;2022-09-23T08:14:08;3.30;;;1.80;;
20567;SDS011;10442;49.932;11.592;2022-09-23T08:16:37;1.98;;;1.88;;
20567;SDS011;10442;49.932;11.592;2022-09-23T08:19:06;2.38;;;2.28;;
20567;SDS011;10442;49.932;11.592;2022-09-23T08:21:33;2.05;;;1.90;;
20567;SDS011;10442;49.932;11.592;2022-09-23T08:24:01;1.88;;;1.77;;
20567;SDS011;10442;49.932;11.592;2022-09-23T08:26:29;1.73;;;1.63;;
20567;SDS011;10442;49.932;11.592;2022-09-23T08:29:00;2.03;;;1.83;;
20567;SDS011;10442;49.932;11.592;2022-09-23T08:31:28;1.63;;;1.52;;
20567;SDS011;10442;49.932;11.592;2022-09-23T08:33:57;1.48;;;1.42;;
20567;SDS011;10442;49.932;11.592;2022-09-23T08:36:26;1.80;;;1.70;;
20567;SDS011;10442;49.932;11.592;2022-09-23T08:38:53;2.95;;;2.67;;
20567;SDS011;10442;49.932;11.592;2022-09-23T08:44:02;2.83;;;2.63;;
20567;SDS011;10442;49.932;11.592;2022-09-23T08:46:41;3.13;;;2.85;;
20567;SDS011;10442;49.932;11.592;2022-09-23T08:49:15;2.55;;;2.15;;
20567;SDS011;10442;49.932;11.592;2022-09-23T08:51:59;2.65;;;1.70;;
20567;SDS011;10442;49.932;11.592;2022-09-23T08:54:34;2.83;;;1.50;;
20567;SDS011;10442;49.932;11.592;2022-09-23T08:57:02;2.20;;;2.00;;
20567;SDS011;10442;49.932;11.592;2022-09-23T08:59:41;1.52;;;1.42;;
20567;SDS011;10442;49.932;11.592;2022-09-23T09:04:46;2.05;;;1.95;;
20567;SDS011;10442;49.932;11.592;2022-09-23T09:07:20;1.90;;;1.80;;
20567;SDS011;10442;49.932;11.592;2022-09-23T09:10:05;1.92;;;1.83;;
20567;SDS011;10442;49.932;11.592;2022-09-23T09:13:04;2.58;;;1.63;;
20567;SDS011;10442;49.932;11.592;2022-09-23T09:15:40;1.80;;;1.70;;
20567;SDS011;10442;49.932;11.592;2022-09-23T09:18:22;1.83;;;1.73;;
20567;SDS011;10442;49.932;11.592;2022-09-23T09:26:31;3.35;;;2.38;;
20567;SDS011;10442;49.932;11.592;2022-09-23T09:32:09;2.20;;;2.10;;
20567;SDS011;10442;49.932;11.592;2022-09-23T09:34:46;2.45;;;2.35;;
20567;SDS011;10442;49.932;11.592;2022-09-23T09:40:10;2.53;;;2.17;;
20567;SDS011;10442;49.932;11.592;2022-09-23T09:42:40;1.90;;;1.80;;
20567;SDS011;10442;49.932;11.592;2022-09-23T09:48:16;2.03;;;1.92;;
20567;SDS011;10442;49.932;11.592;2022-09-23T09:50:54;3.20;;;2.90;;
20567;SDS011;10442;49.932;11.592;2022-09-23T09:53:25;2.78;;;2.58;;
20567;SDS011;10442;49.932;11.592;2022-09-23T09:55:59;2.17;;;2.08;;
20567;SDS011;10442;49.932;11.592;2022-09-23T09:58:32;3.45;;;3.15;;
20567;SDS011;10442;49.932;11.592;2022-09-23T10:03:48;3.30;;;3.00;;
20567;SDS011;10442;49.932;11.592;2022-09-23T10:06:25;2.67;;;2.20;;
20567;SDS011;10442;49.932;11.592;2022-09-23T10:11:28;1.90;;;1.80;;
20567;SDS011;10442;49.932;11.592;2022-09-23T10:16:38;1.80;;;1.70;;
20567;SDS011;10442;49.932;11.592;2022-09-23T10:19:26;1.88;;;1.70;;
20567;SDS011;10442;49.932;11.592;2022-09-23T10:21:55;1.95;;;1.85;;
20567;SDS011;10442;49.932;11.592;2022-09-23T10:24:31;5.00;;;2.40;;
20567;SDS011;10442;49.932;11.592;2022-09-23T10:27:03;2.38;;;2.20;;
20567;SDS011;10442;49.932;11.592;2022-09-23T10:29:39;1.80;;;1.70;;
20567;SDS011;10442;49.932;11.592;2022-09-23T10:32:19;2.85;;;2.65;;
20567;SDS011;10442;49.932;11.592;2022-09-23T10:37:56;2.83;;;1.83;;
20567;SDS011;10442;49.932;11.592;2022-09-23T10:40:28;3.90;;;3.13;;
20567;SDS011;10442;49.932;11.592;2022-09-23T10:46:15;3.03;;;1.77;;
20567;SDS011;10442;49.932;11.592;2022-09-23T11:03:09;1.50;;;1.08;;
20567;SDS011;10442;49.932;11.592;2022-09-23T11:08:40;2.60;;;1.42;;
20567;SDS011;10442;49.932;11.592;2022-09-23T11:25:49;1.52;;;1.40;;
20567;SDS011;10442;49.932;11.592;2022-09-23T11:28:34;1.23;;;1.00;;
20567;SDS011;10442;49.932;11.592;2022-09-23T11:31:23;1.13;;;1.08;;
20567;SDS011;10442;49.932;11.592;2022-09-23T11:36:43;1.40;;;1.30;;
20567;SDS011;10442;49.932;11.592;2022-09-23T11:39:19;1.60;;;1.52;;
20567;SDS011;10442;49.932;11.592;2022-09-23T11:41:53;1.60;;;1.50;;
20567;SDS011;10442;49.932;11.592;2022-09-23T11:44:27;1.52;;;1.42;;
20567;SDS011;10442;49.932;11.592;2022-09-23T11:47:09;1.10;;;1.10;;
20567;SDS011;10442;49.932;11.592;2022-09-23T11:50:22;1.70;;;1.60;;
20567;SDS011;10442;49.932;11.592;2022-09-23T11:52:50;1.55;;;1.45;;
20567;SDS011;10442;49.932;11.592;2022-09-23T11:55:25;1.10;;;1.10;;
20567;SDS011;10442;49.932;11.592;2022-09-23T11:58:14;0.88;;;0.88;;
20567;SDS011;10442;49.932;11.592;2022-09-23T12:01:06;1.33;;;1.02;;
20567;SDS011;10442;49.932;11.592;2022-09-23T12:03:47;1.33;;;1.02;;
20567;SDS011;10442;49.932;11.592;2022-09-23T12:06:44;2.00;;;1.90;;
20567;SDS011;10442;49.932;11.592;2022-09-23T12:09:19;1.60;;;1.50;;
20567;SDS011;10442;49.932;11.592;2022-09-23T12:15:04;1.67;;;1.05;;
20567;SDS011;10442;49.932;11.592;2022-09-23T12:20:36;1.42;;;1.33;;
20567;SDS011;10442;49.932;11.592;2022-09-23T12:23:25;1.40;;;1.10;;
20567;SDS011;10442;49.932;11.592;2022-09-23T12:26:13;1.70;;;1.40;;
20567;SDS011;10442;49.932;11.592;2022-09-23T12:28:45;1.30;;;1.17;;
20567;SDS011;10442;49.932;11.592;2022-09-23T12:31:21;1.40;;;1.30;;
20567;SDS011;10442;49.932;11.592;2022-09-23T12:33:57;1.00;;;1.00;;
20567;SDS011;10442;49.932;11.592;2022-09-23T12:36:31;0.93;;;0.93;;
20567;SDS011;10442;49.932;11.592;2022-09-23T12:39:02;1.27;;;1.17;;
20567;SDS011;10442;49.932;11.592;2022-09-23T12:41:40;1.00;;;1.00;;
20567;SDS011;10442;49.932;11.592;2022-09-23T12:46:40;0.98;;;0.93;;
20567;SDS011;10442;49.932;11.592;2022-09-23T12:52:30;1.73;;;1.63;;
20567;SDS011;10442;49.932;11.592;2022-09-23T12:54:56;1.23;;;1.20;;
20567;SDS011;10442;49.932;11.592;2022-09-23T12:57:44;1.33;;;1.23;;
20567;SDS011;10442;49.932;11.592;2022-09-23T13:08:42;1.65;;;1.35;;
20567;SDS011;10442;49.932;11.592;2022-09-23T13:11:20;1.50;;;1.40;;
20567;SDS011;10442;49.932;11.592;2022-09-23T13:13:52;2.20;;;2.08;;
20567;SDS011;10442;49.932;11.592;2022-09-23T13:16:24;1.25;;;1.15;;
20567;SDS011;10442;49.932;11.592;2022-09-23T13:18:53;1.20;;;1.10;;
20567;SDS011;10442;49.932;11.592;2022-09-23T13:26:42;1.10;;;1.10;;
20567;SDS011;10442;49.932;11.592;2022-09-23T13:29:16;1.83;;;1.63;;
20567;SDS011;10442;49.932;11.592;2022-09-23T13:31:49;0.88;;;0.88;;
20567;SDS011;10442;49.932;11.592;2022-09-23T13:34:20;1.08;;;1.08;;
20567;SDS011;10442;49.932;11.592;2022-09-23T13:36:53;1.23;;;1.23;;
20567;SDS011;10442;49.932;11.592;2022-09-23T13:39:24;1.10;;;1.10;;
20567;SDS011;10442;49.932;11.592;2022-09-23T13:41:53;1.00;;;1.00;;
20567;SDS011;10442;49.932;11.592;2022-09-23T13:44:26;1.10;;;1.10;;
20567;SDS011;10442;49.932;11.592;2022-09-23T13:46:56;1.52;;;1.42;;
20567;SDS011;10442;49.932;11.592;2022-09-23T13:49:27;1.48;;;1.38;;
20567;SDS011;10442;49.932;11.592;2022-09-23T13:51:58;1.42;;;1.33;;
20567;SDS011;10442;49.932;11.592;2022-09-23T13:54:30;1.42;;;1.20;;
20567;SDS011;10442;49.932;11.592;2022-09-23T13:57:01;1.05;;;1.05;;
20567;SDS011;10442;49.932;11.592;2022-09-23T13:59:30;1.67;;;1.40;;
20567;SDS011;10442;49.932;11.592;2022-09-23T14:04:31;1.08;;;1.08;;
20567;SDS011;10442;49.932;11.592;2022-09-23T14:06:58;1.33;;;1.30;;
20567;SDS011;10442;49.932;11.592;2022-09-23T14:09:27;1.73;;;1.63;;
20567;SDS011;10442;49.932;11.592;2022-09-23T14:11:57;1.25;;;1.20;;
20567;SDS011;10442;49.932;11.592;2022-09-23T14:14:26;1.33;;;1.23;;
20567;SDS011;10442;49.932;11.592;2022-09-23T14:16:56;0.90;;;0.90;;
20567;SDS011;10442;49.932;11.592;2022-09-23T14:19:25;1.55;;;1.45;;
20567;SDS011;10442;49.932;11.592;2022-09-23T14:21:53;1.50;;;1.35;;
20567;SDS011;10442;49.932;11.592;2022-09-23T14:24:29;1.42;;;1.40;;
20567;SDS011;10442;49.932;11.592;2022-09-23T14:29:36;1.05;;;1.05;;
20567;SDS011;10442;49.932;11.592;2022-09-23T14:34:52;1.60;;;1.48;;
20567;SDS011;10442;49.932;11.592;2022-09-23T14:43:04;1.50;;;1.40;;
20567;SDS011;10442;49.932;11.592;2022-09-23T14:45:45;1.38;;;1.38;;
20567;SDS011;10442;49.932;11.592;2022-09-23T14:48:18;1.25;;;1.23;;
20567;SDS011;10442;49.932;11.592;2022-09-23T14:50:53;1.00;;;1.00;;
20567;SDS011;10442;49.932;11.592;2022-09-23T14:53:33;3.33;;;1.30;;
20567;SDS011;10442;49.932;11.592;2022-09-23T15:01:23;1.33;;;1.23;;
20567;SDS011;10442;49.932;11.592;2022-09-23T15:04:11;1.20;;;1.20;;
20567;SDS011;10442;49.932;11.592;2022-09-23T15:06:39;1.30;;;1.30;;
20567;SDS011;10442;49.932;11.592;2022-09-23T15:09:15;1.23;;;1.10;;
20567;SDS011;10442;49.932;11.592;2022-09-23T15:11:46;1.45;;;1.35;;
20567;SDS011;10442;49.932;11.592;2022-09-23T15:14:13;1.15;;;1.13;;
20567;SDS011;10442;49.932;11.592;2022-09-23T15:17:01;1.00;;;1.00;;
20567;SDS011;10442;49.932;11.592;2022-09-23T15:19:33;0.85;;;0.85;;
20567;SDS011;10442;49.932;11.592;2022-09-23T15:22:01;2.88;;;1.25;;
20567;SDS011;10442;49.932;11.592;2022-09-23T15:24:34;0.90;;;0.90;;
20567;SDS011;10442;49.932;11.592;2022-09-23T15:27:23;0.93;;;0.93;;
20567;SDS011;10442;49.932;11.592;2022-09-23T15:32:45;1.08;;;1.08;;
20567;SDS011;10442;49.932;11.592;2022-09-23T15:35:13;1.45;;;1.10;;
20567;SDS011;10442;49.932;11.592;2022-09-23T15:37:47;0.82;;;0.82;;
20567;SDS011;10442;49.932;11.592;2022-09-23T15:40:20;1.05;;;1.05;;
20567;SDS011;10442;49.932;11.592;2022-09-23T15:42:50;0.98;;;0.88;;
20567;SDS011;10442;49.932;11.592;2022-09-23T15:45:31;1.20;;;1.20;;
20567;SDS011;10442;49.932;11.592;2022-09-23T15:48:21;4.18;;;1.55;;
20567;SDS011;10442;49.932;11.592;2022-09-23T15:50:52;1.02;;;1.02;;
20567;SDS011;10442;49.932;11.592;2022-09-23T15:53:21;1.00;;;1.00;;
20567;SDS011;10442;49.932;11.592;2022-09-23T15:55:50;1.40;;;0.90;;
20567;SDS011;10442;49.932;11.592;2022-09-23T15:58:18;1.70;;;1.35;;
20567;SDS011;10442;49.932;11.592;2022-09-23T16:00:49;1.50;;;1.40;;
20567;SDS011;10442;49.932;11.592;2022-09-23T16:03:23;1.58;;;1.48;;
20567;SDS011;10442;49.932;11.592;2022-09-23T16:05:55;1.35;;;1.25;;
20567;SDS011;10442;49.932;11.592;2022-09-23T16:08:27;2.40;;;1.70;;
20567;SDS011;10442;49.932;11.592;2022-09-23T16:10:55;1.80;;;1.70;;
20567;SDS011;10442;49.932;11.592;2022-09-23T16:13:22;1.33;;;1.02;;
20567;SDS011;10442;49.932;11.592;2022-09-23T16:15:50;5.00;;;1.25;;
20567;SDS011;10442;49.932;11.592;2022-09-23T16:18:18;1.52;;;1.42;;
20567;SDS011;10442;49.932;11.592;2022-09-23T16:20:46;1.25;;;1.17;;
20567;SDS011;10442;49.932;11.592;2022-09-23T16:23:22;1.52;;;1.13;;
20567;SDS011;10442;49.932;11.592;2022-09-23T16:28:36;3.47;;;1.20;;
20567;SDS011;10442;49.932;11.592;2022-09-23T16:31:03;3.45;;;1.63;;
20567;SDS011;10442;49.932;11.592;2022-09-23T16:33:31;2.55;;;1.38;;
20567;SDS011;10442;49.932;11.592;2022-09-23T16:35:59;1.85;;;1.30;;
20567;SDS011;10442;49.932;11.592;2022-09-23T16:38:27;1.63;;;1.52;;
20567;SDS011;10442;49.932;11.592;2022-09-23T16:40:55;1.48;;;1.38;;
20567;SDS011;10442;49.932;11.592;2022-09-23T16:43:26;1.17;;;1.10;;
20567;SDS011;10442;49.932;11.592;2022-09-23T16:45:58;1.55;;;1.45;;
20567;SDS011;10442;49.932;11.592;2022-09-23T16:48:27;1.40;;;1.30;;
20567;SDS011;10442;49.932;11.592;2022-09-23T16:50:54;1.40;;;1.30;;
20567;SDS011;10442;49.932;11.592;2022-09-23T16:53:22;5.15;;;1.83;;
20567;SDS011;10442;49.932;11.592;2022-09-23T16:55:49;1.58;;;1.48;;
20567;SDS011;10442;49.932;11.592;2022-09-23T16:58:19;1.52;;;1.42;;
20567;SDS011;10442;49.932;11.592;2022-09-23T17:00:46;1.20;;;1.15;;
20567;SDS011;10442;49.932;11.592;2022-09-23T17:03:33;1.38;;;1.33;;
20567;SDS011;10442;49.932;11.592;2022-09-23T17:06:08;1.60;;;1.55;;
20567;SDS011;10442;49.932;11.592;2022-09-23T17:08:41;1.95;;;1.85;;
20567;SDS011;10442;49.932;11.592;2022-09-23T17:11:13;3.10;;;1.88;;
20567;SDS011;10442;49.932;11.592;2022-09-23T17:13:42;2.35;;;2.08;;
20567;SDS011;10442;49.932;11.592;2022-09-23T17:16:11;1.65;;;1.55;;
20567;SDS011;10442;49.932;11.592;2022-09-23T17:18:54;2.17;;;2.08;;
20567;SDS011;10442;49.932;11.592;2022-09-23T17:21:26;1.58;;;1.48;;
20567;SDS011;10442;49.932;11.592;2022-09-23T17:23:53;2.03;;;1.92;;
20567;SDS011;10442;49.932;11.592;2022-09-23T17:26:22;4.25;;;2.15;;
20567;SDS011;10442;49.932;11.592;2022-09-23T17:28:52;1.85;;;1.75;;
20567;SDS011;10442;49.932;11.592;2022-09-23T17:31:20;3.90;;;2.13;;
20567;SDS011;10442;49.932;11.592;2022-09-23T17:33:50;2.00;;;1.90;;
20567;SDS011;10442;49.932;11.592;2022-09-23T17:36:18;2.00;;;1.90;;
20567;SDS011;10442;49.932;11.592;2022-09-23T17:38:47;2.17;;;2.05;;
20567;SDS011;10442;49.932;11.592;2022-09-23T17:41:15;2.10;;;2.00;;
20567;SDS011;10442;49.932;11.592;2022-09-23T17:43:43;2.08;;;1.98;;